sensor_id;sensor_type;location;lat;lon;timestamp;temperature;humidity
16863;DHT22;52193;48.216;-1.698;2023-05-14T00:01:53;17.40;94.40
16863;DHT22;52193;48.216;-1.698;2023-05-14T00:04:21;17.40;94.40
16863;DHT22;52193;48.216;-1.698;2023-05-14T00:06:48;17.40;94.40
16863;DHT22;52193;48.216;-1.698;2023-05-14T00:09:15;17.50;94.50
16863;DHT22;52193;48.216;-1.698;2023-05-14T00:11:42;17.50;94.50
16863;DHT22;52193;48.216;-1.698;2023-05-14T00:14:09;17.40;94.40
16863;DHT22;52193;48.216;-1.698;2023-05-14T00:16:36;17.30;94.50
16863;DHT22;52193;48.216;-1.698;2023-05-14T00:19:03;17.30;94.50
16863;DHT22;52193;48.216;-1.698;2023-05-14T00:21:31;17.30;94.70
16863;DHT22;52193;48.216;-1.698;2023-05-14T00:23:58;17.30;94.80
16863;DHT22;52193;48.216;-1.698;2023-05-14T00:26:25;17.30;94.90
16863;DHT22;52193;48.216;-1.698;2023-05-14T00:28:52;17.20;94.80
16863;DHT22;52193;48.216;-1.698;2023-05-14T00:31:19;17.30;94.90
16863;DHT22;52193;48.216;-1.698;2023-05-14T00:33:45;17.30;94.90
16863;DHT22;52193;48.216;-1.698;2023-05-14T00:36:12;17.20;94.80
16863;DHT22;52193;48.216;-1.698;2023-05-14T00:38:41;17.20;94.90
16863;DHT22;52193;48.216;-1.698;2023-05-14T00:41:07;17.20;95.00
16863;DHT22;52193;48.216;-1.698;2023-05-14T00:43:34;17.20;95.00
16863;DHT22;52193;48.216;-1.698;2023-05-14T00:46:01;17.20;95.00
16863;DHT22;52193;48.216;-1.698;2023-05-14T00:48:28;17.20;95.00
16863;DHT22;52193;48.216;-1.698;2023-05-14T00:50:55;17.20;95.10
16863;DHT22;52193;48.216;-1.698;2023-05-14T00:53:22;17.30;95.10
16863;DHT22;52193;48.216;-1.698;2023-05-14T00:55:51;17.30;95.10
16863;DHT22;52193;48.216;-1.698;2023-05-14T00:58:19;17.30;95.10
16863;DHT22;52193;48.216;-1.698;2023-05-14T01:00:45;17.30;95.20
16863;DHT22;52193;48.216;-1.698;2023-05-14T01:03:12;17.30;95.20
16863;DHT22;52193;48.216;-1.698;2023-05-14T01:05:44;17.30;95.30
16863;DHT22;52193;48.216;-1.698;2023-05-14T01:08:19;17.30;95.40
16863;DHT22;52193;48.216;-1.698;2023-05-14T01:10:55;17.30;95.40
16863;DHT22;52193;48.216;-1.698;2023-05-14T01:13:28;17.30;95.40
16863;DHT22;52193;48.216;-1.698;2023-05-14T01:15:57;17.30;95.40
16863;DHT22;52193;48.216;-1.698;2023-05-14T01:18:27;17.40;95.40
16863;DHT22;52193;48.216;-1.698;2023-05-14T01:20:55;17.40;95.50
16863;DHT22;52193;48.216;-1.698;2023-05-14T01:23:23;17.40;95.60
16863;DHT22;52193;48.216;-1.698;2023-05-14T01:25:50;17.50;95.50
16863;DHT22;52193;48.216;-1.698;2023-05-14T01:28:18;17.40;95.50
16863;DHT22;52193;48.216;-1.698;2023-05-14T01:30:55;17.40;95.60
16863;DHT22;52193;48.216;-1.698;2023-05-14T01:33:24;17.40;95.60
16863;DHT22;52193;48.216;-1.698;2023-05-14T01:35:52;17.40;95.60
16863;DHT22;52193;48.216;-1.698;2023-05-14T01:38:19;17.40;95.60
16863;DHT22;52193;48.216;-1.698;2023-05-14T01:40:49;17.40;95.70
16863;DHT22;52193;48.216;-1.698;2023-05-14T01:43:16;17.40;95.60
16863;DHT22;52193;48.216;-1.698;2023-05-14T01:45:44;17.40;95.70
16863;DHT22;52193;48.216;-1.698;2023-05-14T01:48:11;17.50;95.70
16863;DHT22;52193;48.216;-1.698;2023-05-14T01:50:38;17.40;95.80
16863;DHT22;52193;48.216;-1.698;2023-05-14T01:53:05;17.40;95.80
16863;DHT22;52193;48.216;-1.698;2023-05-14T01:55:32;17.40;95.90
16863;DHT22;52193;48.216;-1.698;2023-05-14T01:58:00;17.50;95.90
16863;DHT22;52193;48.216;-1.698;2023-05-14T02:00:27;17.50;95.90
16863;DHT22;52193;48.216;-1.698;2023-05-14T02:02:54;17.50;95.90
16863;DHT22;52193;48.216;-1.698;2023-05-14T02:05:21;17.50;96.00
16863;DHT22;52193;48.216;-1.698;2023-05-14T02:07:49;17.50;96.00
16863;DHT22;52193;48.216;-1.698;2023-05-14T02:10:16;17.50;96.00
16863;DHT22;52193;48.216;-1.698;2023-05-14T02:12:43;17.50;96.00
16863;DHT22;52193;48.216;-1.698;2023-05-14T02:15:11;17.60;96.00
16863;DHT22;52193;48.216;-1.698;2023-05-14T02:17:38;17.60;96.00
16863;DHT22;52193;48.216;-1.698;2023-05-14T02:20:06;17.60;96.00
16863;DHT22;52193;48.216;-1.698;2023-05-14T02:22:34;17.60;96.40
16863;DHT22;52193;48.216;-1.698;2023-05-14T02:25:01;17.60;96.10
16863;DHT22;52193;48.216;-1.698;2023-05-14T02:27:28;17.60;96.10
16863;DHT22;52193;48.216;-1.698;2023-05-14T02:29:56;17.60;96.10
16863;DHT22;52193;48.216;-1.698;2023-05-14T02:32:26;17.60;96.10
16863;DHT22;52193;48.216;-1.698;2023-05-14T02:34:53;17.70;96.20
16863;DHT22;52193;48.216;-1.698;2023-05-14T02:37:20;17.70;96.10
16863;DHT22;52193;48.216;-1.698;2023-05-14T02:39:47;17.70;96.10
16863;DHT22;52193;48.216;-1.698;2023-05-14T02:42:14;17.70;96.10
16863;DHT22;52193;48.216;-1.698;2023-05-14T02:44:41;17.70;96.00
16863;DHT22;52193;48.216;-1.698;2023-05-14T02:47:08;17.70;96.00
16863;DHT22;52193;48.216;-1.698;2023-05-14T02:49:36;17.70;96.00
16863;DHT22;52193;48.216;-1.698;2023-05-14T02:52:04;17.70;96.00
16863;DHT22;52193;48.216;-1.698;2023-05-14T02:54:31;17.70;96.00
16863;DHT22;52193;48.216;-1.698;2023-05-14T02:56:58;17.70;96.00
16863;DHT22;52193;48.216;-1.698;2023-05-14T02:59:26;17.70;96.00
16863;DHT22;52193;48.216;-1.698;2023-05-14T03:01:53;17.70;96.00
16863;DHT22;52193;48.216;-1.698;2023-05-14T03:04:19;17.70;96.00
16863;DHT22;52193;48.216;-1.698;2023-05-14T03:06:48;17.70;96.00
16863;DHT22;52193;48.216;-1.698;2023-05-14T03:09:15;17.70;96.00
16863;DHT22;52193;48.216;-1.698;2023-05-14T03:11:42;17.70;96.00
16863;DHT22;52193;48.216;-1.698;2023-05-14T03:14:09;17.70;96.00
16863;DHT22;52193;48.216;-1.698;2023-05-14T03:16:35;17.70;96.00
16863;DHT22;52193;48.216;-1.698;2023-05-14T03:19:02;17.80;96.10
16863;DHT22;52193;48.216;-1.698;2023-05-14T03:21:29;17.70;96.00
16863;DHT22;52193;48.216;-1.698;2023-05-14T03:23:58;17.70;96.10
16863;DHT22;52193;48.216;-1.698;2023-05-14T03:26:25;17.70;96.10
16863;DHT22;52193;48.216;-1.698;2023-05-14T03:28:53;17.70;96.10
16863;DHT22;52193;48.216;-1.698;2023-05-14T03:31:20;17.70;96.10
16863;DHT22;52193;48.216;-1.698;2023-05-14T03:33:47;17.80;96.10
16863;DHT22;52193;48.216;-1.698;2023-05-14T03:36:14;17.70;96.00
16863;DHT22;52193;48.216;-1.698;2023-05-14T03:38:41;17.70;96.00
16863;DHT22;52193;48.216;-1.698;2023-05-14T03:41:09;17.70;96.00
16863;DHT22;52193;48.216;-1.698;2023-05-14T03:43:36;17.70;96.10
16863;DHT22;52193;48.216;-1.698;2023-05-14T03:46:03;17.70;96.40
16863;DHT22;52193;48.216;-1.698;2023-05-14T03:48:30;17.70;96.20
16863;DHT22;52193;48.216;-1.698;2023-05-14T03:50:57;17.60;96.10
16863;DHT22;52193;48.216;-1.698;2023-05-14T03:53:24;17.70;96.20
16863;DHT22;52193;48.216;-1.698;2023-05-14T03:55:51;17.60;96.20
16863;DHT22;52193;48.216;-1.698;2023-05-14T03:58:19;17.60;96.20
16863;DHT22;52193;48.216;-1.698;2023-05-14T04:00:46;17.70;96.30
16863;DHT22;52193;48.216;-1.698;2023-05-14T04:03:13;17.70;96.30
16863;DHT22;52193;48.216;-1.698;2023-05-14T04:05:40;17.70;96.20
16863;DHT22;52193;48.216;-1.698;2023-05-14T04:08:07;17.70;96.30
16863;DHT22;52193;48.216;-1.698;2023-05-14T04:10:34;17.70;96.30
16863;DHT22;52193;48.216;-1.698;2023-05-14T04:13:00;17.70;96.40
16863;DHT22;52193;48.216;-1.698;2023-05-14T04:15:29;17.70;96.30
16863;DHT22;52193;48.216;-1.698;2023-05-14T04:17:56;17.80;96.40
16863;DHT22;52193;48.216;-1.698;2023-05-14T04:20:22;17.80;96.30
16863;DHT22;52193;48.216;-1.698;2023-05-14T04:22:49;17.80;96.40
16863;DHT22;52193;48.216;-1.698;2023-05-14T04:25:17;17.80;96.40
16863;DHT22;52193;48.216;-1.698;2023-05-14T04:27:44;17.70;96.40
16863;DHT22;52193;48.216;-1.698;2023-05-14T04:30:11;17.70;96.40
16863;DHT22;52193;48.216;-1.698;2023-05-14T04:32:40;17.70;96.40
16863;DHT22;52193;48.216;-1.698;2023-05-14T04:35:07;17.70;96.50
16863;DHT22;52193;48.216;-1.698;2023-05-14T04:37:34;17.70;96.50
16863;DHT22;52193;48.216;-1.698;2023-05-14T04:40:02;17.70;96.40
16863;DHT22;52193;48.216;-1.698;2023-05-14T04:42:29;17.70;96.40
16863;DHT22;52193;48.216;-1.698;2023-05-14T04:44:56;17.70;96.40
16863;DHT22;52193;48.216;-1.698;2023-05-14T04:47:23;17.70;96.50
16863;DHT22;52193;48.216;-1.698;2023-05-14T04:49:52;17.80;96.50
16863;DHT22;52193;48.216;-1.698;2023-05-14T04:52:19;17.80;96.50
16863;DHT22;52193;48.216;-1.698;2023-05-14T04:54:46;17.80;96.50
16863;DHT22;52193;48.216;-1.698;2023-05-14T04:57:13;17.80;96.50
16863;DHT22;52193;48.216;-1.698;2023-05-14T04:59:40;17.80;96.50
16863;DHT22;52193;48.216;-1.698;2023-05-14T05:02:07;17.90;96.50
16863;DHT22;52193;48.216;-1.698;2023-05-14T05:04:34;17.80;96.50
16863;DHT22;52193;48.216;-1.698;2023-05-14T05:07:02;17.80;96.40
16863;DHT22;52193;48.216;-1.698;2023-05-14T05:09:30;17.80;96.50
16863;DHT22;52193;48.216;-1.698;2023-05-14T05:11:57;17.80;96.50
16863;DHT22;52193;48.216;-1.698;2023-05-14T05:14:26;17.80;96.50
16863;DHT22;52193;48.216;-1.698;2023-05-14T05:16:52;17.80;96.50
16863;DHT22;52193;48.216;-1.698;2023-05-14T05:19:19;17.80;96.60
16863;DHT22;52193;48.216;-1.698;2023-05-14T05:21:46;17.70;96.50
16863;DHT22;52193;48.216;-1.698;2023-05-14T05:24:14;17.80;96.60
16863;DHT22;52193;48.216;-1.698;2023-05-14T05:26:41;17.80;96.50
16863;DHT22;52193;48.216;-1.698;2023-05-14T05:29:08;17.80;96.50
16863;DHT22;52193;48.216;-1.698;2023-05-14T05:31:35;17.80;96.60
16863;DHT22;52193;48.216;-1.698;2023-05-14T05:34:02;17.90;96.70
16863;DHT22;52193;48.216;-1.698;2023-05-14T05:36:29;17.90;96.60
16863;DHT22;52193;48.216;-1.698;2023-05-14T05:38:56;17.90;96.60
16863;DHT22;52193;48.216;-1.698;2023-05-14T05:41:24;17.90;96.70
16863;DHT22;52193;48.216;-1.698;2023-05-14T05:43:52;18.00;96.60
16863;DHT22;52193;48.216;-1.698;2023-05-14T05:46:19;17.90;96.60
16863;DHT22;52193;48.216;-1.698;2023-05-14T05:48:45;17.90;96.60
16863;DHT22;52193;48.216;-1.698;2023-05-14T05:51:13;17.90;96.60
16863;DHT22;52193;48.216;-1.698;2023-05-14T05:53:39;18.00;96.70
16863;DHT22;52193;48.216;-1.698;2023-05-14T05:56:07;18.00;96.70
16863;DHT22;52193;48.216;-1.698;2023-05-14T05:58:35;18.00;96.70
16863;DHT22;52193;48.216;-1.698;2023-05-14T06:01:02;18.00;96.70
16863;DHT22;52193;48.216;-1.698;2023-05-14T06:03:29;18.00;96.70
16863;DHT22;52193;48.216;-1.698;2023-05-14T06:05:55;18.10;96.70
16863;DHT22;52193;48.216;-1.698;2023-05-14T06:08:22;18.10;96.70
16863;DHT22;52193;48.216;-1.698;2023-05-14T06:10:49;18.10;96.60
16863;DHT22;52193;48.216;-1.698;2023-05-14T06:13:16;18.20;96.70
16863;DHT22;52193;48.216;-1.698;2023-05-14T06:15:44;18.20;96.80
16863;DHT22;52193;48.216;-1.698;2023-05-14T06:18:11;18.20;96.80
16863;DHT22;52193;48.216;-1.698;2023-05-14T06:20:38;18.20;96.70
16863;DHT22;52193;48.216;-1.698;2023-05-14T06:23:06;18.30;97.00
16863;DHT22;52193;48.216;-1.698;2023-05-14T06:25:33;18.30;96.70
16863;DHT22;52193;48.216;-1.698;2023-05-14T06:28:00;18.40;96.70
16863;DHT22;52193;48.216;-1.698;2023-05-14T06:30:27;18.50;96.60
16863;DHT22;52193;48.216;-1.698;2023-05-14T06:32:55;18.50;96.60
16863;DHT22;52193;48.216;-1.698;2023-05-14T06:35:22;18.50;96.60
16863;DHT22;52193;48.216;-1.698;2023-05-14T06:37:49;18.50;96.60
16863;DHT22;52193;48.216;-1.698;2023-05-14T06:40:17;18.60;96.70
16863;DHT22;52193;48.216;-1.698;2023-05-14T06:42:44;18.60;96.70
16863;DHT22;52193;48.216;-1.698;2023-05-14T06:45:11;18.60;96.60
16863;DHT22;52193;48.216;-1.698;2023-05-14T06:47:38;18.60;96.60
16863;DHT22;52193;48.216;-1.698;2023-05-14T06:50:07;18.70;96.50
16863;DHT22;52193;48.216;-1.698;2023-05-14T06:52:35;18.60;96.50
16863;DHT22;52193;48.216;-1.698;2023-05-14T06:55:02;18.60;96.50
16863;DHT22;52193;48.216;-1.698;2023-05-14T06:57:29;18.70;96.50
16863;DHT22;52193;48.216;-1.698;2023-05-14T06:59:56;18.70;96.50
16863;DHT22;52193;48.216;-1.698;2023-05-14T07:02:22;18.80;96.50
16863;DHT22;52193;48.216;-1.698;2023-05-14T07:04:49;18.80;96.50
16863;DHT22;52193;48.216;-1.698;2023-05-14T07:07:18;18.80;96.40
16863;DHT22;52193;48.216;-1.698;2023-05-14T07:09:45;18.80;96.50
16863;DHT22;52193;48.216;-1.698;2023-05-14T07:12:12;18.80;96.50
16863;DHT22;52193;48.216;-1.698;2023-05-14T07:14:39;18.90;96.50
16863;DHT22;52193;48.216;-1.698;2023-05-14T07:17:06;19.00;96.50
16863;DHT22;52193;48.216;-1.698;2023-05-14T07:19:33;19.00;96.40
16863;DHT22;52193;48.216;-1.698;2023-05-14T07:22:00;19.00;96.40
16863;DHT22;52193;48.216;-1.698;2023-05-14T07:24:28;19.00;96.30
16863;DHT22;52193;48.216;-1.698;2023-05-14T07:26:55;19.10;96.40
16863;DHT22;52193;48.216;-1.698;2023-05-14T07:29:22;19.10;96.30
16863;DHT22;52193;48.216;-1.698;2023-05-14T07:31:50;19.10;96.30
16863;DHT22;52193;48.216;-1.698;2023-05-14T07:34:17;19.20;96.30
16863;DHT22;52193;48.216;-1.698;2023-05-14T07:36:44;19.20;96.20
16863;DHT22;52193;48.216;-1.698;2023-05-14T07:39:11;19.30;96.20
16863;DHT22;52193;48.216;-1.698;2023-05-14T07:41:39;19.40;96.20
16863;DHT22;52193;48.216;-1.698;2023-05-14T07:44:06;19.40;96.20
16863;DHT22;52193;48.216;-1.698;2023-05-14T07:46:33;19.40;96.10
16863;DHT22;52193;48.216;-1.698;2023-05-14T07:49:00;19.40;96.00
16863;DHT22;52193;48.216;-1.698;2023-05-14T07:51:27;19.50;96.00
16863;DHT22;52193;48.216;-1.698;2023-05-14T07:53:54;19.60;96.10
16863;DHT22;52193;48.216;-1.698;2023-05-14T07:56:21;19.70;96.00
16863;DHT22;52193;48.216;-1.698;2023-05-14T07:58:50;19.70;96.00
16863;DHT22;52193;48.216;-1.698;2023-05-14T08:01:17;19.80;96.00
16863;DHT22;52193;48.216;-1.698;2023-05-14T08:03:44;19.80;95.90
16863;DHT22;52193;48.216;-1.698;2023-05-14T08:06:11;19.80;95.90
16863;DHT22;52193;48.216;-1.698;2023-05-14T08:08:38;19.90;95.90
16863;DHT22;52193;48.216;-1.698;2023-05-14T08:11:05;19.90;95.80
16863;DHT22;52193;48.216;-1.698;2023-05-14T08:13:32;20.00;95.80
16863;DHT22;52193;48.216;-1.698;2023-05-14T08:16:00;20.00;95.70
16863;DHT22;52193;48.216;-1.698;2023-05-14T08:18:27;20.10;95.80
16863;DHT22;52193;48.216;-1.698;2023-05-14T08:20:54;20.20;95.70
16863;DHT22;52193;48.216;-1.698;2023-05-14T08:23:21;20.30;95.70
16863;DHT22;52193;48.216;-1.698;2023-05-14T08:25:48;20.30;95.60
16863;DHT22;52193;48.216;-1.698;2023-05-14T08:28:15;20.30;95.70
16863;DHT22;52193;48.216;-1.698;2023-05-14T08:30:42;20.30;95.60
16863;DHT22;52193;48.216;-1.698;2023-05-14T08:33:10;20.40;95.70
16863;DHT22;52193;48.216;-1.698;2023-05-14T08:35:37;20.40;95.60
16863;DHT22;52193;48.216;-1.698;2023-05-14T08:38:04;20.50;95.60
16863;DHT22;52193;48.216;-1.698;2023-05-14T08:40:31;20.50;95.40
16863;DHT22;52193;48.216;-1.698;2023-05-14T08:42:59;20.60;95.30
16863;DHT22;52193;48.216;-1.698;2023-05-14T08:45:29;20.70;95.30
16863;DHT22;52193;48.216;-1.698;2023-05-14T08:47:59;20.70;95.30
16863;DHT22;52193;48.216;-1.698;2023-05-14T08:50:28;20.70;95.20
16863;DHT22;52193;48.216;-1.698;2023-05-14T08:52:55;20.80;95.20
16863;DHT22;52193;48.216;-1.698;2023-05-14T08:55:22;20.90;95.20
16863;DHT22;52193;48.216;-1.698;2023-05-14T08:57:50;20.90;95.10
16863;DHT22;52193;48.216;-1.698;2023-05-14T09:00:17;20.90;95.10
16863;DHT22;52193;48.216;-1.698;2023-05-14T09:02:45;21.00;95.00
16863;DHT22;52193;48.216;-1.698;2023-05-14T09:05:14;21.10;95.00
16863;DHT22;52193;48.216;-1.698;2023-05-14T09:07:44;21.10;94.90
16863;DHT22;52193;48.216;-1.698;2023-05-14T09:10:11;21.20;94.80
16863;DHT22;52193;48.216;-1.698;2023-05-14T09:12:40;21.30;94.80
16863;DHT22;52193;48.216;-1.698;2023-05-14T09:15:07;21.30;94.80
16863;DHT22;52193;48.216;-1.698;2023-05-14T09:17:34;21.40;94.90
16863;DHT22;52193;48.216;-1.698;2023-05-14T09:20:01;21.50;94.80
16863;DHT22;52193;48.216;-1.698;2023-05-14T09:22:29;21.40;94.60
16863;DHT22;52193;48.216;-1.698;2023-05-14T09:25:06;21.30;94.60
16863;DHT22;52193;48.216;-1.698;2023-05-14T09:27:34;21.30;94.70
16863;DHT22;52193;48.216;-1.698;2023-05-14T09:30:06;21.40;94.60
16863;DHT22;52193;48.216;-1.698;2023-05-14T09:32:37;21.60;94.60
16863;DHT22;52193;48.216;-1.698;2023-05-14T09:35:10;21.70;94.50
16863;DHT22;52193;48.216;-1.698;2023-05-14T09:37:37;21.80;94.50
16863;DHT22;52193;48.216;-1.698;2023-05-14T09:40:08;21.80;94.50
16863;DHT22;52193;48.216;-1.698;2023-05-14T09:42:36;21.90;94.40
16863;DHT22;52193;48.216;-1.698;2023-05-14T09:45:04;21.90;94.40
16863;DHT22;52193;48.216;-1.698;2023-05-14T09:47:31;21.90;94.40
16863;DHT22;52193;48.216;-1.698;2023-05-14T09:49:58;21.90;94.40
16863;DHT22;52193;48.216;-1.698;2023-05-14T09:52:25;21.90;94.50
16863;DHT22;52193;48.216;-1.698;2023-05-14T09:54:53;22.00;94.40
16863;DHT22;52193;48.216;-1.698;2023-05-14T09:57:21;22.10;94.40
16863;DHT22;52193;48.216;-1.698;2023-05-14T09:59:48;22.20;94.40
16863;DHT22;52193;48.216;-1.698;2023-05-14T10:02:19;22.30;94.30
16863;DHT22;52193;48.216;-1.698;2023-05-14T10:04:48;22.30;94.30
16863;DHT22;52193;48.216;-1.698;2023-05-14T10:07:19;22.30;94.30
16863;DHT22;52193;48.216;-1.698;2023-05-14T10:09:47;22.30;94.20
16863;DHT22;52193;48.216;-1.698;2023-05-14T10:12:15;22.40;94.20
16863;DHT22;52193;48.216;-1.698;2023-05-14T10:14:47;22.50;94.20
16863;DHT22;52193;48.216;-1.698;2023-05-14T10:17:18;22.50;94.10
16863;DHT22;52193;48.216;-1.698;2023-05-14T10:19:55;22.70;94.00
16863;DHT22;52193;48.216;-1.698;2023-05-14T10:22:24;22.90;94.00
16863;DHT22;52193;48.216;-1.698;2023-05-14T10:24:53;23.00;93.90
16863;DHT22;52193;48.216;-1.698;2023-05-14T10:27:22;23.20;93.80
16863;DHT22;52193;48.216;-1.698;2023-05-14T10:29:52;23.30;93.70
16863;DHT22;52193;48.216;-1.698;2023-05-14T10:32:20;23.30;93.60
16863;DHT22;52193;48.216;-1.698;2023-05-14T10:34:49;23.30;93.50
16863;DHT22;52193;48.216;-1.698;2023-05-14T10:37:17;23.30;93.50
16863;DHT22;52193;48.216;-1.698;2023-05-14T10:39:46;23.30;93.50
16863;DHT22;52193;48.216;-1.698;2023-05-14T10:42:16;23.40;93.50
16863;DHT22;52193;48.216;-1.698;2023-05-14T10:44:50;23.40;93.20
16863;DHT22;52193;48.216;-1.698;2023-05-14T10:47:19;23.30;93.10
16863;DHT22;52193;48.216;-1.698;2023-05-14T10:49:46;23.30;93.10
16863;DHT22;52193;48.216;-1.698;2023-05-14T10:52:16;23.50;93.10
16863;DHT22;52193;48.216;-1.698;2023-05-14T10:54:48;23.60;93.00
16863;DHT22;52193;48.216;-1.698;2023-05-14T10:57:17;23.70;92.90
16863;DHT22;52193;48.216;-1.698;2023-05-14T10:59:45;23.70;92.80
16863;DHT22;52193;48.216;-1.698;2023-05-14T11:02:21;23.50;92.70
16863;DHT22;52193;48.216;-1.698;2023-05-14T11:04:53;23.40;92.60
16863;DHT22;52193;48.216;-1.698;2023-05-14T11:07:23;23.50;92.70
16863;DHT22;52193;48.216;-1.698;2023-05-14T11:09:51;23.50;92.60
16863;DHT22;52193;48.216;-1.698;2023-05-14T11:12:18;23.50;92.70
16863;DHT22;52193;48.216;-1.698;2023-05-14T11:14:46;23.60;92.60
16863;DHT22;52193;48.216;-1.698;2023-05-14T11:17:14;23.50;92.60
16863;DHT22;52193;48.216;-1.698;2023-05-14T11:19:43;23.60;92.60
16863;DHT22;52193;48.216;-1.698;2023-05-14T11:22:10;23.70;92.50
16863;DHT22;52193;48.216;-1.698;2023-05-14T11:24:39;23.80;92.50
16863;DHT22;52193;48.216;-1.698;2023-05-14T11:27:07;24.00;92.40
16863;DHT22;52193;48.216;-1.698;2023-05-14T11:29:34;24.10;92.70
16863;DHT22;52193;48.216;-1.698;2023-05-14T11:32:03;24.30;92.40
16863;DHT22;52193;48.216;-1.698;2023-05-14T11:34:30;24.50;92.30
16863;DHT22;52193;48.216;-1.698;2023-05-14T11:37:02;24.40;92.20
16863;DHT22;52193;48.216;-1.698;2023-05-14T11:39:29;24.50;92.00
16863;DHT22;52193;48.216;-1.698;2023-05-14T11:41:57;24.60;91.90
16863;DHT22;52193;48.216;-1.698;2023-05-14T11:44:24;24.60;91.90
16863;DHT22;52193;48.216;-1.698;2023-05-14T11:46:55;24.70;91.80
16863;DHT22;52193;48.216;-1.698;2023-05-14T11:49:22;25.00;91.70
16863;DHT22;52193;48.216;-1.698;2023-05-14T11:51:49;25.20;91.50
16863;DHT22;52193;48.216;-1.698;2023-05-14T11:54:17;25.20;91.40
16863;DHT22;52193;48.216;-1.698;2023-05-14T11:56:49;25.60;91.30
16863;DHT22;52193;48.216;-1.698;2023-05-14T11:59:17;25.70;91.20
16863;DHT22;52193;48.216;-1.698;2023-05-14T12:01:44;26.00;91.00
16863;DHT22;52193;48.216;-1.698;2023-05-14T12:04:11;26.40;90.80
16863;DHT22;52193;48.216;-1.698;2023-05-14T12:06:39;26.70;90.60
16863;DHT22;52193;48.216;-1.698;2023-05-14T12:09:06;27.10;90.40
16863;DHT22;52193;48.216;-1.698;2023-05-14T12:11:36;27.30;90.00
16863;DHT22;52193;48.216;-1.698;2023-05-14T12:14:10;27.40;89.60
16863;DHT22;52193;48.216;-1.698;2023-05-14T12:16:39;27.60;89.30
16863;DHT22;52193;48.216;-1.698;2023-05-14T12:19:08;28.00;88.90
16863;DHT22;52193;48.216;-1.698;2023-05-14T12:21:35;28.20;88.40
16863;DHT22;52193;48.216;-1.698;2023-05-14T12:24:03;28.50;87.60
16863;DHT22;52193;48.216;-1.698;2023-05-14T12:26:32;29.00;86.90
16863;DHT22;52193;48.216;-1.698;2023-05-14T12:29:02;29.50;85.40
16863;DHT22;52193;48.216;-1.698;2023-05-14T12:31:29;29.60;84.60
16863;DHT22;52193;48.216;-1.698;2023-05-14T12:33:56;30.10;84.30
16863;DHT22;52193;48.216;-1.698;2023-05-14T12:36:23;30.70;83.60
16863;DHT22;52193;48.216;-1.698;2023-05-14T12:38:57;31.20;82.50
16863;DHT22;52193;48.216;-1.698;2023-05-14T12:41:24;32.00;81.50
16863;DHT22;52193;48.216;-1.698;2023-05-14T12:43:51;32.80;80.30
16863;DHT22;52193;48.216;-1.698;2023-05-14T12:46:19;33.10;79.70
16863;DHT22;52193;48.216;-1.698;2023-05-14T12:48:46;33.50;78.20
16863;DHT22;52193;48.216;-1.698;2023-05-14T12:51:13;33.90;77.80
16863;DHT22;52193;48.216;-1.698;2023-05-14T12:53:40;34.40;76.60
16863;DHT22;52193;48.216;-1.698;2023-05-14T12:56:07;35.00;75.70
16863;DHT22;52193;48.216;-1.698;2023-05-14T12:58:34;35.50;74.70
16863;DHT22;52193;48.216;-1.698;2023-05-14T13:01:01;36.00;74.00
16863;DHT22;52193;48.216;-1.698;2023-05-14T13:03:29;36.70;73.40
16863;DHT22;52193;48.216;-1.698;2023-05-14T13:05:56;37.10;72.60
16863;DHT22;52193;48.216;-1.698;2023-05-14T13:08:24;36.70;72.40
16863;DHT22;52193;48.216;-1.698;2023-05-14T13:10:51;37.50;71.60
16863;DHT22;52193;48.216;-1.698;2023-05-14T13:13:18;38.30;70.00
16863;DHT22;52193;48.216;-1.698;2023-05-14T13:15:45;39.00;68.50
16863;DHT22;52193;48.216;-1.698;2023-05-14T13:18:12;39.70;67.60
16863;DHT22;52193;48.216;-1.698;2023-05-14T13:20:40;40.50;66.50
16863;DHT22;52193;48.216;-1.698;2023-05-14T13:23:07;41.50;65.40
16863;DHT22;52193;48.216;-1.698;2023-05-14T13:25:34;42.50;64.30
16863;DHT22;52193;48.216;-1.698;2023-05-14T13:28:01;43.30;62.40
16863;DHT22;52193;48.216;-1.698;2023-05-14T13:30:29;43.90;61.30
16863;DHT22;52193;48.216;-1.698;2023-05-14T13:32:56;44.40;60.60
16863;DHT22;52193;48.216;-1.698;2023-05-14T13:35:23;45.50;59.50
16863;DHT22;52193;48.216;-1.698;2023-05-14T13:37:51;46.30;58.80
16863;DHT22;52193;48.216;-1.698;2023-05-14T13:40:18;46.80;57.90
16863;DHT22;52193;48.216;-1.698;2023-05-14T13:42:45;47.60;57.20
16863;DHT22;52193;48.216;-1.698;2023-05-14T13:45:12;48.10;56.40
16863;DHT22;52193;48.216;-1.698;2023-05-14T13:47:39;48.50;55.70
16863;DHT22;52193;48.216;-1.698;2023-05-14T13:50:07;48.80;54.70
16863;DHT22;52193;48.216;-1.698;2023-05-14T13:52:34;49.10;54.00
16863;DHT22;52193;48.216;-1.698;2023-05-14T13:55:02;49.10;53.50
16863;DHT22;52193;48.216;-1.698;2023-05-14T13:57:29;49.20;52.90
16863;DHT22;52193;48.216;-1.698;2023-05-14T13:59:56;49.30;52.30
16863;DHT22;52193;48.216;-1.698;2023-05-14T14:02:23;49.30;51.80
16863;DHT22;52193;48.216;-1.698;2023-05-14T14:04:50;49.30;51.90
16863;DHT22;52193;48.216;-1.698;2023-05-14T14:07:17;49.30;52.00
16863;DHT22;52193;48.216;-1.698;2023-05-14T14:09:45;48.90;51.40
16863;DHT22;52193;48.216;-1.698;2023-05-14T14:12:13;48.50;51.90
16863;DHT22;52193;48.216;-1.698;2023-05-14T14:14:40;48.20;51.40
16863;DHT22;52193;48.216;-1.698;2023-05-14T14:17:07;48.30;51.90
16863;DHT22;52193;48.216;-1.698;2023-05-14T14:19:34;48.10;51.30
16863;DHT22;52193;48.216;-1.698;2023-05-14T14:22:01;47.50;51.00
16863;DHT22;52193;48.216;-1.698;2023-05-14T14:24:28;47.30;51.20
16863;DHT22;52193;48.216;-1.698;2023-05-14T14:26:55;47.40;51.40
16863;DHT22;52193;48.216;-1.698;2023-05-14T14:29:24;47.30;51.50
16863;DHT22;52193;48.216;-1.698;2023-05-14T14:31:50;47.20;51.20
16863;DHT22;52193;48.216;-1.698;2023-05-14T14:34:17;46.80;51.20
16863;DHT22;52193;48.216;-1.698;2023-05-14T14:36:44;46.70;51.10
16863;DHT22;52193;48.216;-1.698;2023-05-14T14:39:11;46.70;51.20
16863;DHT22;52193;48.216;-1.698;2023-05-14T14:41:38;46.20;51.00
16863;DHT22;52193;48.216;-1.698;2023-05-14T14:44:05;46.30;51.00
16863;DHT22;52193;48.216;-1.698;2023-05-14T14:46:33;46.20;50.90
16863;DHT22;52193;48.216;-1.698;2023-05-14T14:49:00;45.80;50.60
16863;DHT22;52193;48.216;-1.698;2023-05-14T14:51:27;45.50;50.90
16863;DHT22;52193;48.216;-1.698;2023-05-14T14:53:54;45.00;50.90
16863;DHT22;52193;48.216;-1.698;2023-05-14T14:56:21;44.20;51.20
16863;DHT22;52193;48.216;-1.698;2023-05-14T14:58:48;43.50;51.70
16863;DHT22;52193;48.216;-1.698;2023-05-14T15:01:15;43.20;52.20
16863;DHT22;52193;48.216;-1.698;2023-05-14T15:03:43;43.00;52.70
16863;DHT22;52193;48.216;-1.698;2023-05-14T15:06:12;42.80;53.10
16863;DHT22;52193;48.216;-1.698;2023-05-14T15:08:39;42.50;52.70
16863;DHT22;52193;48.216;-1.698;2023-05-14T15:11:07;42.40;53.00
16863;DHT22;52193;48.216;-1.698;2023-05-14T15:13:33;42.30;52.70
16863;DHT22;52193;48.216;-1.698;2023-05-14T15:16:00;42.30;52.40
16863;DHT22;52193;48.216;-1.698;2023-05-14T15:18:27;42.10;52.60